sensor_id;sensor_type;location;lat;lon;timestamp;P1;durP1;ratioP1;P2;durP2;ratioP2
35977;SDS011;22056;0.000;0.000;2023-11-22T00:01:11;0.75;;;0.43;;
35977;SDS011;22056;0.000;0.000;2023-11-22T00:03:37;0.88;;;0.40;;
35977;SDS011;22056;0.000;0.000;2023-11-22T00:06:04;1.08;;;0.55;;
35977;SDS011;22056;0.000;0.000;2023-11-22T00:08:32;0.50;;;0.40;;
35977;SDS011;22056;0.000;0.000;2023-11-22T00:10:59;2.15;;;0.47;;
35977;SDS011;22056;0.000;0.000;2023-11-22T00:13:25;1.85;;;0.57;;
35977;SDS011;22056;0.000;0.000;2023-11-22T00:15:51;1.33;;;0.40;;
35977;SDS011;22056;0.000;0.000;2023-11-22T00:18:17;2.15;;;0.60;;
35977;SDS011;22056;0.000;0.000;2023-11-22T00:20:44;1.00;;;0.60;;
35977;SDS011;22056;0.000;0.000;2023-11-22T00:23:12;1.30;;;0.52;;
35977;SDS011;22056;0.000;0.000;2023-11-22T00:25:38;1.52;;;0.47;;
35977;SDS011;22056;0.000;0.000;2023-11-22T00:28:05;1.15;;;0.40;;
35977;SDS011;22056;0.000;0.000;2023-11-22T00:30:31;1.23;;;0.40;;
35977;SDS011;22056;0.000;0.000;2023-11-22T00:32:58;0.65;;;0.40;;
35977;SDS011;22056;0.000;0.000;2023-11-22T00:35:24;2.78;;;0.50;;
35977;SDS011;22056;0.000;0.000;2023-11-22T00:37:50;0.60;;;0.47;;
35977;SDS011;22056;0.000;0.000;2023-11-22T00:40:16;1.73;;;0.47;;
35977;SDS011;22056;0.000;0.000;2023-11-22T00:42:42;3.40;;;0.50;;
35977;SDS011;22056;0.000;0.000;2023-11-22T00:45:09;1.48;;;0.60;;
35977;SDS011;22056;0.000;0.000;2023-11-22T00:47:35;0.88;;;0.40;;
35977;SDS011;22056;0.000;0.000;2023-11-22T00:50:02;0.82;;;0.40;;
35977;SDS011;22056;0.000;0.000;2023-11-22T00:52:30;0.52;;;0.30;;
35977;SDS011;22056;0.000;0.000;2023-11-22T00:54:56;0.40;;;0.35;;
35977;SDS011;22056;0.000;0.000;2023-11-22T00:57:22;1.08;;;0.50;;
35977;SDS011;22056;0.000;0.000;2023-11-22T00:59:49;0.93;;;0.50;;
35977;SDS011;22056;0.000;0.000;2023-11-22T01:02:15;0.68;;;0.40;;
35977;SDS011;22056;0.000;0.000;2023-11-22T01:04:41;0.88;;;0.40;;
35977;SDS011;22056;0.000;0.000;2023-11-22T01:07:07;1.38;;;0.40;;
35977;SDS011;22056;0.000;0.000;2023-11-22T01:09:34;0.80;;;0.40;;
35977;SDS011;22056;0.000;0.000;2023-11-22T01:12:00;0.43;;;0.40;;
35977;SDS011;22056;0.000;0.000;2023-11-22T01:14:26;0.77;;;0.32;;
35977;SDS011;22056;0.000;0.000;2023-11-22T01:16:53;0.40;;;0.40;;
35977;SDS011;22056;0.000;0.000;2023-11-22T01:19:19;0.47;;;0.30;;
35977;SDS011;22056;0.000;0.000;2023-11-22T01:21:46;0.88;;;0.40;;
35977;SDS011;22056;0.000;0.000;2023-11-22T01:24:12;0.55;;;0.30;;
35977;SDS011;22056;0.000;0.000;2023-11-22T01:26:38;0.38;;;0.30;;
35977;SDS011;22056;0.000;0.000;2023-11-22T01:29:04;0.65;;;0.43;;
35977;SDS011;22056;0.000;0.000;2023-11-22T01:31:30;0.50;;;0.30;;
35977;SDS011;22056;0.000;0.000;2023-11-22T01:33:57;0.70;;;0.40;;
35977;SDS011;22056;0.000;0.000;2023-11-22T01:36:24;1.67;;;0.32;;
35977;SDS011;22056;0.000;0.000;2023-11-22T01:38:51;1.15;;;0.40;;
35977;SDS011;22056;0.000;0.000;2023-11-22T01:41:17;0.77;;;0.30;;
35977;SDS011;22056;0.000;0.000;2023-11-22T01:43:44;0.70;;;0.40;;
35977;SDS011;22056;0.000;0.000;2023-11-22T01:46:21;0.57;;;0.50;;
35977;SDS011;22056;0.000;0.000;2023-11-22T01:48:49;1.30;;;0.43;;
35977;SDS011;22056;0.000;0.000;2023-11-22T01:51:15;0.32;;;0.30;;
35977;SDS011;22056;0.000;0.000;2023-11-22T01:53:41;0.70;;;0.35;;
35977;SDS011;22056;0.000;0.000;2023-11-22T01:56:08;0.40;;;0.30;;
35977;SDS011;22056;0.000;0.000;2023-11-22T01:58:34;0.43;;;0.35;;
35977;SDS011;22056;0.000;0.000;2023-11-22T02:01:00;0.50;;;0.30;;
35977;SDS011;22056;0.000;0.000;2023-11-22T02:03:27;0.55;;;0.20;;
35977;SDS011;22056;0.000;0.000;2023-11-22T02:05:55;0.75;;;0.20;;
35977;SDS011;22056;0.000;0.000;2023-11-22T02:08:21;0.40;;;0.40;;
35977;SDS011;22056;0.000;0.000;2023-11-22T02:10:57;0.25;;;0.20;;
35977;SDS011;22056;0.000;0.000;2023-11-22T02:13:24;0.32;;;0.30;;
35977;SDS011;22056;0.000;0.000;2023-11-22T02:15:50;0.30;;;0.30;;
35977;SDS011;22056;0.000;0.000;2023-11-22T02:18:17;1.42;;;0.40;;
35977;SDS011;22056;0.000;0.000;2023-11-22T02:20:43;2.78;;;0.50;;
35977;SDS011;22056;0.000;0.000;2023-11-22T02:23:10;0.38;;;0.30;;
35977;SDS011;22056;0.000;0.000;2023-11-22T02:25:36;0.45;;;0.30;;
35977;SDS011;22056;0.000;0.000;2023-11-22T02:28:02;0.40;;;0.30;;
35977;SDS011;22056;0.000;0.000;2023-11-22T02:30:29;0.63;;;0.30;;
35977;SDS011;22056;0.000;0.000;2023-11-22T02:32:55;0.75;;;0.30;;
35977;SDS011;22056;0.000;0.000;2023-11-22T02:35:21;0.90;;;0.32;;
35977;SDS011;22056;0.000;0.000;2023-11-22T02:37:47;0.65;;;0.32;;
35977;SDS011;22056;0.000;0.000;2023-11-22T02:40:17;0.75;;;0.20;;
35977;SDS011;22056;0.000;0.000;2023-11-22T02:42:45;0.30;;;0.30;;
35977;SDS011;22056;0.000;0.000;2023-11-22T02:45:11;0.30;;;0.30;;
35977;SDS011;22056;0.000;0.000;2023-11-22T02:47:39;1.45;;;0.40;;
35977;SDS011;22056;0.000;0.000;2023-11-22T02:50:05;0.30;;;0.30;;
35977;SDS011;22056;0.000;0.000;2023-11-22T02:52:32;0.57;;;0.20;;
35977;SDS011;22056;0.000;0.000;2023-11-22T02:54:58;0.50;;;0.40;;
35977;SDS011;22056;0.000;0.000;2023-11-22T02:57:25;0.38;;;0.32;;
35977;SDS011;22056;0.000;0.000;2023-11-22T02:59:51;0.47;;;0.28;;
35977;SDS011;22056;0.000;0.000;2023-11-22T03:02:17;0.47;;;0.30;;
35977;SDS011;22056;0.000;0.000;2023-11-22T03:04:43;0.75;;;0.28;;
35977;SDS011;22056;0.000;0.000;2023-11-22T03:07:10;0.20;;;0.20;;
35977;SDS011;22056;0.000;0.000;2023-11-22T03:09:36;0.43;;;0.30;;
35977;SDS011;22056;0.000;0.000;2023-11-22T03:12:02;1.00;;;0.25;;
35977;SDS011;22056;0.000;0.000;2023-11-22T03:14:28;0.88;;;0.30;;
35977;SDS011;22056;0.000;0.000;2023-11-22T03:16:55;0.43;;;0.32;;
35977;SDS011;22056;0.000;0.000;2023-11-22T03:19:21;1.27;;;0.25;;
35977;SDS011;22056;0.000;0.000;2023-11-22T03:21:47;0.30;;;0.30;;
35977;SDS011;22056;0.000;0.000;2023-11-22T03:24:14;0.30;;;0.30;;
35977;SDS011;22056;0.000;0.000;2023-11-22T03:26:41;0.40;;;0.30;;
35977;SDS011;22056;0.000;0.000;2023-11-22T03:29:07;0.30;;;0.30;;
35977;SDS011;22056;0.000;0.000;2023-11-22T03:31:33;0.63;;;0.43;;
35977;SDS011;22056;0.000;0.000;2023-11-22T03:33:59;0.65;;;0.30;;
35977;SDS011;22056;0.000;0.000;2023-11-22T03:36:25;0.25;;;0.25;;
35977;SDS011;22056;0.000;0.000;2023-11-22T03:38:52;0.30;;;0.20;;
35977;SDS011;22056;0.000;0.000;2023-11-22T03:41:18;0.25;;;0.20;;
35977;SDS011;22056;0.000;0.000;2023-11-22T03:43:46;0.40;;;0.32;;
35977;SDS011;22056;0.000;0.000;2023-11-22T03:46:12;0.32;;;0.30;;
35977;SDS011;22056;0.000;0.000;2023-11-22T03:48:38;0.30;;;0.30;;
35977;SDS011;22056;0.000;0.000;2023-11-22T03:51:04;0.30;;;0.30;;
35977;SDS011;22056;0.000;0.000;2023-11-22T03:53:30;0.43;;;0.30;;
35977;SDS011;22056;0.000;0.000;2023-11-22T03:55:57;0.28;;;0.28;;
35977;SDS011;22056;0.000;0.000;2023-11-22T03:58:23;0.38;;;0.30;;
35977;SDS011;22056;0.000;0.000;2023-11-22T04:00:50;0.30;;;0.30;;
35977;SDS011;22056;0.000;0.000;2023-11-22T04:03:17;0.65;;;0.32;;
35977;SDS011;22056;0.000;0.000;2023-11-22T04:05:44;0.35;;;0.30;;
35977;SDS011;22056;0.000;0.000;2023-11-22T04:08:10;0.30;;;0.30;;
35977;SDS011;22056;0.000;0.000;2023-11-22T04:10:36;0.60;;;0.30;;
35977;SDS011;22056;0.000;0.000;2023-11-22T04:13:02;0.30;;;0.30;;
35977;SDS011;22056;0.000;0.000;2023-11-22T04:15:29;0.85;;;0.40;;
35977;SDS011;22056;0.000;0.000;2023-11-22T04:17:55;0.68;;;0.40;;
35977;SDS011;22056;0.000;0.000;2023-11-22T04:20:22;0.30;;;0.30;;
35977;SDS011;22056;0.000;0.000;2023-11-22T04:22:48;0.30;;;0.30;;
35977;SDS011;22056;0.000;0.000;2023-11-22T04:25:14;0.25;;;0.25;;
35977;SDS011;22056;0.000;0.000;2023-11-22T04:27:41;0.20;;;0.20;;
35977;SDS011;22056;0.000;0.000;2023-11-22T04:30:07;0.30;;;0.20;;
35977;SDS011;22056;0.000;0.000;2023-11-22T04:32:35;0.47;;;0.32;;
35977;SDS011;22056;0.000;0.000;2023-11-22T04:35:05;0.65;;;0.30;;
35977;SDS011;22056;0.000;0.000;2023-11-22T04:37:31;0.55;;;0.40;;
35977;SDS011;22056;0.000;0.000;2023-11-22T04:40:00;0.52;;;0.30;;
35977;SDS011;22056;0.000;0.000;2023-11-22T04:42:26;0.43;;;0.30;;
35977;SDS011;22056;0.000;0.000;2023-11-22T04:44:53;0.40;;;0.40;;
35977;SDS011;22056;0.000;0.000;2023-11-22T04:47:19;0.68;;;0.40;;
35977;SDS011;22056;0.000;0.000;2023-11-22T04:49:50;0.30;;;0.30;;
35977;SDS011;22056;0.000;0.000;2023-11-22T04:52:16;0.30;;;0.30;;
35977;SDS011;22056;0.000;0.000;2023-11-22T04:54:42;0.70;;;0.40;;
35977;SDS011;22056;0.000;0.000;2023-11-22T04:57:08;0.30;;;0.30;;
35977;SDS011;22056;0.000;0.000;2023-11-22T04:59:35;0.30;;;0.30;;
35977;SDS011;22056;0.000;0.000;2023-11-22T05:02:02;0.40;;;0.40;;
35977;SDS011;22056;0.000;0.000;2023-11-22T05:04:28;0.73;;;0.38;;
35977;SDS011;22056;0.000;0.000;2023-11-22T05:06:54;0.70;;;0.40;;
35977;SDS011;22056;0.000;0.000;2023-11-22T05:09:20;0.47;;;0.30;;
35977;SDS011;22056;0.000;0.000;2023-11-22T05:11:46;0.52;;;0.32;;
35977;SDS011;22056;0.000;0.000;2023-11-22T05:14:12;0.20;;;0.20;;
35977;SDS011;22056;0.000;0.000;2023-11-22T05:16:38;0.40;;;0.40;;
35977;SDS011;22056;0.000;0.000;2023-11-22T05:19:05;0.20;;;0.20;;
35977;SDS011;22056;0.000;0.000;2023-11-22T05:21:31;0.20;;;0.20;;
35977;SDS011;22056;0.000;0.000;2023-11-22T05:23:57;0.80;;;0.38;;
35977;SDS011;22056;0.000;0.000;2023-11-22T05:26:24;0.30;;;0.30;;
35977;SDS011;22056;0.000;0.000;2023-11-22T05:28:50;1.17;;;0.45;;
35977;SDS011;22056;0.000;0.000;2023-11-22T05:31:19;0.35;;;0.35;;
35977;SDS011;22056;0.000;0.000;2023-11-22T05:33:45;0.43;;;0.30;;
35977;SDS011;22056;0.000;0.000;2023-11-22T05:36:12;0.35;;;0.30;;
35977;SDS011;22056;0.000;0.000;2023-11-22T05:38:39;0.30;;;0.30;;
35977;SDS011;22056;0.000;0.000;2023-11-22T05:41:05;0.30;;;0.30;;
35977;SDS011;22056;0.000;0.000;2023-11-22T05:43:31;0.30;;;0.30;;
35977;SDS011;22056;0.000;0.000;2023-11-22T05:46:01;0.47;;;0.40;;
35977;SDS011;22056;0.000;0.000;2023-11-22T05:48:28;1.17;;;0.30;;
35977;SDS011;22056;0.000;0.000;2023-11-22T05:50:54;0.65;;;0.40;;
35977;SDS011;22056;0.000;0.000;2023-11-22T05:53:20;0.82;;;0.50;;
35977;SDS011;22056;0.000;0.000;2023-11-22T05:55:47;1.05;;;0.20;;
35977;SDS011;22056;0.000;0.000;2023-11-22T05:58:16;1.58;;;0.30;;
35977;SDS011;22056;0.000;0.000;2023-11-22T06:00:46;1.38;;;0.38;;
35977;SDS011;22056;0.000;0.000;2023-11-22T06:03:12;0.47;;;0.30;;
35977;SDS011;22056;0.000;0.000;2023-11-22T06:05:39;1.45;;;0.50;;
35977;SDS011;22056;0.000;0.000;2023-11-22T06:08:05;1.45;;;0.40;;
35977;SDS011;22056;0.000;0.000;2023-11-22T06:10:34;0.85;;;0.35;;
35977;SDS011;22056;0.000;0.000;2023-11-22T06:13:00;1.17;;;0.40;;
35977;SDS011;22056;0.000;0.000;2023-11-22T06:15:26;0.50;;;0.40;;
35977;SDS011;22056;0.000;0.000;2023-11-22T06:17:52;1.33;;;0.50;;
35977;SDS011;22056;0.000;0.000;2023-11-22T06:20:18;3.15;;;0.50;;
35977;SDS011;22056;0.000;0.000;2023-11-22T06:22:46;1.55;;;0.40;;
35977;SDS011;22056;0.000;0.000;2023-11-22T06:25:12;2.15;;;0.40;;
35977;SDS011;22056;0.000;0.000;2023-11-22T06:27:38;1.00;;;0.40;;
35977;SDS011;22056;0.000;0.000;2023-11-22T06:30:08;3.22;;;0.50;;
35977;SDS011;22056;0.000;0.000;2023-11-22T06:32:34;1.05;;;0.47;;
35977;SDS011;22056;0.000;0.000;2023-11-22T06:35:00;0.70;;;0.43;;
35977;SDS011;22056;0.000;0.000;2023-11-22T06:37:28;0.98;;;0.70;;
35977;SDS011;22056;0.000;0.000;2023-11-22T06:39:54;1.20;;;0.47;;
35977;SDS011;22056;0.000;0.000;2023-11-22T06:42:22;2.40;;;0.57;;
35977;SDS011;22056;0.000;0.000;2023-11-22T06:44:48;1.85;;;0.50;;
35977;SDS011;22056;0.000;0.000;2023-11-22T06:47:18;0.30;;;0.30;;
35977;SDS011;22056;0.000;0.000;2023-11-22T06:49:44;1.13;;;0.50;;
35977;SDS011;22056;0.000;0.000;2023-11-22T06:52:10;1.67;;;0.50;;
35977;SDS011;22056;0.000;0.000;2023-11-22T06:54:36;2.78;;;0.50;;
35977;SDS011;22056;0.000;0.000;2023-11-22T06:57:02;0.50;;;0.38;;
35977;SDS011;22056;0.000;0.000;2023-11-22T06:59:29;4.22;;;0.55;;
35977;SDS011;22056;0.000;0.000;2023-11-22T07:01:55;1.83;;;0.68;;
35977;SDS011;22056;0.000;0.000;2023-11-22T07:04:21;1.17;;;0.52;;
35977;SDS011;22056;0.000;0.000;2023-11-22T07:06:48;2.47;;;0.70;;
35977;SDS011;22056;0.000;0.000;2023-11-22T07:09:14;1.13;;;0.50;;
35977;SDS011;22056;0.000;0.000;2023-11-22T07:11:41;2.05;;;0.50;;
35977;SDS011;22056;0.000;0.000;2023-11-22T07:14:09;2.58;;;0.60;;
35977;SDS011;22056;0.000;0.000;2023-11-22T07:16:35;0.77;;;0.50;;
35977;SDS011;22056;0.000;0.000;2023-11-22T07:19:02;7.30;;;0.60;;
35977;SDS011;22056;0.000;0.000;2023-11-22T07:21:29;4.90;;;0.60;;
35977;SDS011;22056;0.000;0.000;2023-11-22T07:23:55;1.95;;;0.57;;
35977;SDS011;22056;0.000;0.000;2023-11-22T07:26:21;2.70;;;0.80;;
35977;SDS011;22056;0.000;0.000;2023-11-22T07:28:47;1.52;;;0.60;;
35977;SDS011;22056;0.000;0.000;2023-11-22T07:31:14;5.28;;;0.77;;
35977;SDS011;22056;0.000;0.000;2023-11-22T07:33:40;2.05;;;0.70;;
35977;SDS011;22056;0.000;0.000;2023-11-22T07:36:07;4.88;;;0.88;;
35977;SDS011;22056;0.000;0.000;2023-11-22T07:38:34;7.72;;;0.90;;
35977;SDS011;22056;0.000;0.000;2023-11-22T07:41:00;3.20;;;0.55;;
35977;SDS011;22056;0.000;0.000;2023-11-22T07:43:26;2.17;;;0.80;;
35977;SDS011;22056;0.000;0.000;2023-11-22T07:45:52;3.78;;;1.15;;
35977;SDS011;22056;0.000;0.000;2023-11-22T07:48:19;3.05;;;0.70;;
35977;SDS011;22056;0.000;0.000;2023-11-22T07:50:45;2.22;;;0.77;;
35977;SDS011;22056;0.000;0.000;2023-11-22T07:53:14;7.15;;;0.88;;
35977;SDS011;22056;0.000;0.000;2023-11-22T07:55:40;1.90;;;0.65;;
35977;SDS011;22056;0.000;0.000;2023-11-22T07:58:07;3.38;;;1.05;;
35977;SDS011;22056;0.000;0.000;2023-11-22T08:00:33;3.97;;;0.98;;
35977;SDS011;22056;0.000;0.000;2023-11-22T08:03:00;2.58;;;0.65;;
35977;SDS011;22056;0.000;0.000;2023-11-22T08:05:30;1.73;;;0.75;;
35977;SDS011;22056;0.000;0.000;2023-11-22T08:08:04;2.15;;;0.77;;
35977;SDS011;22056;0.000;0.000;2023-11-22T08:10:36;8.25;;;1.00;;
35977;SDS011;22056;0.000;0.000;2023-11-22T08:13:02;3.10;;;0.80;;
35977;SDS011;22056;0.000;0.000;2023-11-22T08:15:29;3.53;;;0.90;;
35977;SDS011;22056;0.000;0.000;2023-11-22T08:17:58;4.53;;;1.00;;
35977;SDS011;22056;0.000;0.000;2023-11-22T08:20:25;4.13;;;0.70;;
35977;SDS011;22056;0.000;0.000;2023-11-22T08:22:53;2.35;;;1.00;;
35977;SDS011;22056;0.000;0.000;2023-11-22T08:25:19;4.22;;;0.80;;
35977;SDS011;22056;0.000;0.000;2023-11-22T08:27:45;1.50;;;0.90;;
35977;SDS011;22056;0.000;0.000;2023-11-22T08:30:11;2.67;;;0.70;;
35977;SDS011;22056;0.000;0.000;2023-11-22T08:32:41;1.58;;;1.00;;
35977;SDS011;22056;0.000;0.000;2023-11-22T08:35:10;3.35;;;0.75;;
35977;SDS011;22056;0.000;0.000;2023-11-22T08:37:39;3.10;;;0.80;;
35977;SDS011;22056;0.000;0.000;2023-11-22T08:40:07;1.80;;;0.80;;
35977;SDS011;22056;0.000;0.000;2023-11-22T08:42:34;2.72;;;1.05;;
35977;SDS011;22056;0.000;0.000;2023-11-22T08:45:03;2.83;;;0.90;;
35977;SDS011;22056;0.000;0.000;2023-11-22T08:47:29;1.95;;;0.80;;
35977;SDS011;22056;0.000;0.000;2023-11-22T08:49:56;2.45;;;0.90;;
35977;SDS011;22056;0.000;0.000;2023-11-22T08:52:23;4.60;;;1.00;;
35977;SDS011;22056;0.000;0.000;2023-11-22T08:54:49;2.60;;;1.00;;
35977;SDS011;22056;0.000;0.000;2023-11-22T08:57:17;4.18;;;0.95;;
35977;SDS011;22056;0.000;0.000;2023-11-22T08:59:43;2.70;;;1.10;;
35977;SDS011;22056;0.000;0.000;2023-11-22T09:02:09;4.18;;;0.90;;
35977;SDS011;22056;0.000;0.000;2023-11-22T09:04:37;3.65;;;1.38;;
35977;SDS011;22056;0.000;0.000;2023-11-22T09:07:06;2.70;;;1.10;;
35977;SDS011;22056;0.000;0.000;2023-11-22T09:09:32;1.45;;;0.90;;
35977;SDS011;22056;0.000;0.000;2023-11-22T09:12:00;3.03;;;1.10;;
35977;SDS011;22056;0.000;0.000;2023-11-22T09:14:26;2.47;;;1.00;;
35977;SDS011;22056;0.000;0.000;2023-11-22T09:16:53;4.95;;;1.25;;
35977;SDS011;22056;0.000;0.000;2023-11-22T09:19:23;2.22;;;0.98;;
35977;SDS011;22056;0.000;0.000;2023-11-22T09:21:50;1.95;;;0.98;;
35977;SDS011;22056;0.000;0.000;2023-11-22T09:24:16;3.10;;;0.80;;
35977;SDS011;22056;0.000;0.000;2023-11-22T09:26:42;1.90;;;1.00;;
35977;SDS011;22056;0.000;0.000;2023-11-22T09:29:12;2.55;;;0.98;;
35977;SDS011;22056;0.000;0.000;2023-11-22T09:31:39;2.10;;;1.05;;
35977;SDS011;22056;0.000;0.000;2023-11-22T09:34:07;4.70;;;1.13;;
35977;SDS011;22056;0.000;0.000;2023-11-22T09:36:34;2.83;;;1.20;;
35977;SDS011;22056;0.000;0.000;2023-11-22T09:39:00;2.88;;;1.10;;
35977;SDS011;22056;0.000;0.000;2023-11-22T09:41:28;4.22;;;1.00;;
35977;SDS011;22056;0.000;0.000;2023-11-22T09:43:54;2.72;;;0.80;;
35977;SDS011;22056;0.000;0.000;2023-11-22T09:46:21;3.42;;;1.00;;
35977;SDS011;22056;0.000;0.000;2023-11-22T09:48:49;3.08;;;1.10;;
35977;SDS011;22056;0.000;0.000;2023-11-22T09:54:00;4.07;;;1.15;;
35977;SDS011;22056;0.000;0.000;2023-11-22T09:56:29;2.27;;;1.03;;
35977;SDS011;22056;0.000;0.000;2023-11-22T09:58:58;2.58;;;1.10;;
35977;SDS011;22056;0.000;0.000;2023-11-22T10:01:28;3.72;;;0.95;;
35977;SDS011;22056;0.000;0.000;2023-11-22T10:03:56;2.58;;;0.90;;
35977;SDS011;22056;0.000;0.000;2023-11-22T10:06:22;3.05;;;0.93;;
35977;SDS011;22056;0.000;0.000;2023-11-22T10:08:48;1.83;;;0.77;;
35977;SDS011;22056;0.000;0.000;2023-11-22T10:11:16;1.92;;;0.70;;
35977;SDS011;22056;0.000;0.000;2023-11-22T10:13:43;1.75;;;1.23;;
35977;SDS011;22056;0.000;0.000;2023-11-22T10:16:11;2.55;;;0.90;;
35977;SDS011;22056;0.000;0.000;2023-11-22T10:18:41;4.95;;;1.13;;
35977;SDS011;22056;0.000;0.000;2023-11-22T10:21:24;1.35;;;0.80;;
35977;SDS011;22056;0.000;0.000;2023-11-22T10:23:50;3.33;;;0.88;;
35977;SDS011;22056;0.000;0.000;2023-11-22T10:26:18;1.77;;;0.80;;
35977;SDS011;22056;0.000;0.000;2023-11-22T10:28:45;7.05;;;1.00;;
35977;SDS011;22056;0.000;0.000;2023-11-22T10:31:11;2.15;;;1.00;;
35977;SDS011;22056;0.000;0.000;2023-11-22T10:33:42;2.40;;;1.00;;
35977;SDS011;22056;0.000;0.000;2023-11-22T10:36:08;3.63;;;0.90;;
35977;SDS011;22056;0.000;0.000;2023-11-22T10:38:35;1.98;;;0.95;;
35977;SDS011;22056;0.000;0.000;2023-11-22T10:41:04;2.38;;;0.95;;
35977;SDS011;22056;0.000;0.000;2023-11-22T10:43:33;1.67;;;0.88;;
35977;SDS011;22056;0.000;0.000;2023-11-22T10:46:01;2.17;;;0.98;;
35977;SDS011;22056;0.000;0.000;2023-11-22T10:48:27;3.10;;;1.17;;
35977;SDS011;22056;0.000;0.000;2023-11-22T10:50:55;2.38;;;0.90;;
35977;SDS011;22056;0.000;0.000;2023-11-22T10:53:25;3.75;;;0.90;;
35977;SDS011;22056;0.000;0.000;2023-11-22T10:55:57;1.42;;;0.80;;
35977;SDS011;22056;0.000;0.000;2023-11-22T10:58:25;3.00;;;0.80;;
35977;SDS011;22056;0.000;0.000;2023-11-22T11:00:53;3.42;;;0.70;;
35977;SDS011;22056;0.000;0.000;2023-11-22T11:03:20;4.20;;;1.10;;
35977;SDS011;22056;0.000;0.000;2023-11-22T11:05:59;2.20;;;1.00;;
35977;SDS011;22056;0.000;0.000;2023-11-22T11:08:29;2.70;;;1.13;;
35977;SDS011;22056;0.000;0.000;2023-11-22T11:10:56;2.42;;;0.80;;
35977;SDS011;22056;0.000;0.000;2023-11-22T11:13:23;4.00;;;0.95;;
35977;SDS011;22056;0.000;0.000;2023-11-22T11:15:50;3.47;;;1.20;;
35977;SDS011;22056;0.000;0.000;2023-11-22T11:18:17;5.03;;;1.00;;
35977;SDS011;22056;0.000;0.000;2023-11-22T11:23:19;3.63;;;0.95;;
35977;SDS011;22056;0.000;0.000;2023-11-22T11:25:58;2.60;;;0.80;;
35977;SDS011;22056;0.000;0.000;2023-11-22T11:28:25;3.10;;;1.00;;
35977;SDS011;22056;0.000;0.000;2023-11-22T11:30:52;3.45;;;0.82;;
35977;SDS011;22056;0.000;0.000;2023-11-22T11:33:27;3.28;;;0.90;;
35977;SDS011;22056;0.000;0.000;2023-11-22T11:35:58;2.35;;;0.90;;
35977;SDS011;22056;0.000;0.000;2023-11-22T11:38:31;2.38;;;1.00;;
35977;SDS011;22056;0.000;0.000;2023-11-22T11:41:06;2.03;;;1.02;;
35977;SDS011;22056;0.000;0.000;2023-11-22T11:43:45;2.67;;;1.10;;
35977;SDS011;22056;0.000;0.000;2023-11-22T11:46:11;3.15;;;1.20;;
35977;SDS011;22056;0.000;0.000;2023-11-22T11:48:41;3.17;;;0.93;;
35977;SDS011;22056;0.000;0.000;2023-11-22T11:51:08;4.30;;;1.00;;
35977;SDS011;22056;0.000;0.000;2023-11-22T11:53:34;1.55;;;0.80;;
35977;SDS011;22056;0.000;0.000;2023-11-22T11:56:01;2.83;;;1.10;;
35977;SDS011;22056;0.000;0.000;2023-11-22T11:58:27;1.92;;;1.02;;
35977;SDS011;22056;0.000;0.000;2023-11-22T12:00:56;2.65;;;0.90;;
35977;SDS011;22056;0.000;0.000;2023-11-22T12:03:22;2.95;;;0.90;;
35977;SDS011;22056;0.000;0.000;2023-11-22T12:05:49;1.20;;;0.88;;
35977;SDS011;22056;0.000;0.000;2023-11-22T12:08:15;3.35;;;1.20;;
35977;SDS011;22056;0.000;0.000;2023-11-22T12:10:42;2.42;;;0.90;;
35977;SDS011;22056;0.000;0.000;2023-11-22T12:13:09;1.33;;;0.90;;
35977;SDS011;22056;0.000;0.000;2023-11-22T12:15:35;2.25;;;0.90;;
35977;SDS011;22056;0.000;0.000;2023-11-22T12:18:01;5.70;;;0.98;;
35977;SDS011;22056;0.000;0.000;2023-11-22T12:20:28;2.33;;;0.70;;
35977;SDS011;22056;0.000;0.000;2023-11-22T12:22:57;4.07;;;0.90;;
35977;SDS011;22056;0.000;0.000;2023-11-22T12:25:31;3.60;;;1.20;;
35977;SDS011;22056;0.000;0.000;2023-11-22T12:30:30;4.85;;;0.90;;
35977;SDS011;22056;0.000;0.000;2023-11-22T12:33:07;5.90;;;1.33;;
35977;SDS011;22056;0.000;0.000;2023-11-22T12:35:34;2.38;;;0.90;;
35977;SDS011;22056;0.000;0.000;2023-11-22T12:38:00;2.97;;;1.02;;
35977;SDS011;22056;0.000;0.000;2023-11-22T12:40:27;2.33;;;1.00;;
35977;SDS011;22056;0.000;0.000;2023-11-22T12:42:56;2.10;;;0.80;;
35977;SDS011;22056;0.000;0.000;2023-11-22T12:45:23;2.83;;;1.10;;
35977;SDS011;22056;0.000;0.000;2023-11-22T12:47:50;2.75;;;1.00;;
35977;SDS011;22056;0.000;0.000;2023-11-22T12:50:29;3.58;;;1.08;;
35977;SDS011;22056;0.000;0.000;2023-11-22T12:52:57;3.15;;;1.10;;
35977;SDS011;22056;0.000;0.000;2023-11-22T12:55:23;2.90;;;1.00;;
35977;SDS011;22056;0.000;0.000;2023-11-22T12:57:56;2.55;;;1.20;;
35977;SDS011;22056;0.000;0.000;2023-11-22T13:00:23;3.88;;;1.27;;
35977;SDS011;22056;0.000;0.000;2023-11-22T13:02:50;3.15;;;1.10;;
35977;SDS011;22056;0.000;0.000;2023-11-22T13:05:16;3.15;;;1.20;;
35977;SDS011;22056;0.000;0.000;2023-11-22T13:07:44;2.65;;;1.02;;
35977;SDS011;22056;0.000;0.000;2023-11-22T13:10:10;4.30;;;1.27;;
35977;SDS011;22056;0.000;0.000;2023-11-22T13:12:36;2.13;;;1.25;;
35977;SDS011;22056;0.000;0.000;2023-11-22T13:15:02;4.57;;;1.25;;
35977;SDS011;22056;0.000;0.000;2023-11-22T13:17:29;3.97;;;0.95;;
35977;SDS011;22056;0.000;0.000;2023-11-22T13:19:55;3.28;;;0.90;;
35977;SDS011;22056;0.000;0.000;2023-11-22T13:22:21;3.92;;;1.17;;
35977;SDS011;22056;0.000;0.000;2023-11-22T13:24:47;3.55;;;1.20;;
35977;SDS011;22056;0.000;0.000;2023-11-22T13:27:13;1.88;;;1.02;;
35977;SDS011;22056;0.000;0.000;2023-11-22T13:29:40;2.33;;;1.08;;
35977;SDS011;22056;0.000;0.000;2023-11-22T13:32:06;3.65;;;1.00;;
35977;SDS011;22056;0.000;0.000;2023-11-22T13:34:33;1.58;;;1.00;;
35977;SDS011;22056;0.000;0.000;2023-11-22T13:36:59;2.58;;;1.10;;
35977;SDS011;22056;0.000;0.000;2023-11-22T13:39:25;5.50;;;1.00;;
35977;SDS011;22056;0.000;0.000;2023-11-22T13:41:52;3.15;;;1.10;;
35977;SDS011;22056;0.000;0.000;2023-11-22T13:44:18;1.95;;;1.00;;
35977;SDS011;22056;0.000;0.000;2023-11-22T13:46:44;1.80;;;1.10;;
35977;SDS011;22056;0.000;0.000;2023-11-22T13:49:10;2.92;;;1.13;;
35977;SDS011;22056;0.000;0.000;2023-11-22T13:51:36;3.13;;;0.90;;
35977;SDS011;22056;0.000;0.000;2023-11-22T13:54:02;7.30;;;1.30;;
35977;SDS011;22056;0.000;0.000;2023-11-22T13:56:29;3.40;;;1.00;;
35977;SDS011;22056;0.000;0.000;2023-11-22T13:58:55;3.40;;;0.93;;
35977;SDS011;22056;0.000;0.000;2023-11-22T14:01:22;4.28;;;1.38;;
35977;SDS011;22056;0.000;0.000;2023-11-22T14:03:49;3.63;;;1.20;;
35977;SDS011;22056;0.000;0.000;2023-11-22T14:06:17;4.40;;;1.30;;
35977;SDS011;22056;0.000;0.000;2023-11-22T14:08:43;3.30;;;1.30;;
35977;SDS011;22056;0.000;0.000;2023-11-22T14:11:10;3.20;;;1.50;;
35977;SDS011;22056;0.000;0.000;2023-11-22T14:13:37;2.35;;;1.02;;
35977;SDS011;22056;0.000;0.000;2023-11-22T14:16:04;8.02;;;1.20;;
35977;SDS011;22056;0.000;0.000;2023-11-22T14:18:31;2.92;;;1.20;;
35977;SDS011;22056;0.000;0.000;2023-11-22T14:20:57;5.85;;;1.67;;
35977;SDS011;22056;0.000;0.000;2023-11-22T14:23:24;3.17;;;1.30;;
35977;SDS011;22056;0.000;0.000;2023-11-22T14:25:50;3.45;;;1.38;;
35977;SDS011;22056;0.000;0.000;2023-11-22T14:28:16;5.22;;;1.75;;
35977;SDS011;22056;0.000;0.000;2023-11-22T14:30:42;3.10;;;1.83;;
35977;SDS011;22056;0.000;0.000;2023-11-22T14:33:08;2.58;;;1.52;;
35977;SDS011;22056;0.000;0.000;2023-11-22T14:35:35;3.88;;;1.45;;
35977;SDS011;22056;0.000;0.000;2023-11-22T14:38:01;2.50;;;1.40;;
35977;SDS011;22056;0.000;0.000;2023-11-22T14:40:30;4.45;;;1.30;;
35977;SDS011;22056;0.000;0.000;2023-11-22T14:42:58;4.15;;;1.63;;
35977;SDS011;22056;0.000;0.000;2023-11-22T14:45:25;5.13;;;1.70;;
35977;SDS011;22056;0.000;0.000;2023-11-22T14:47:51;5.05;;;1.50;;
35977;SDS011;22056;0.000;0.000;2023-11-22T14:50:17;3.75;;;1.48;;
35977;SDS011;22056;0.000;0.000;2023-11-22T14:52:44;4.03;;;1.50;;
35977;SDS011;22056;0.000;0.000;2023-11-22T14:55:13;3.90;;;1.45;;
35977;SDS011;22056;0.000;0.000;2023-11-22T14:57:41;3.92;;;1.75;;
35977;SDS011;22056;0.000;0.000;2023-11-22T15:00:08;4.68;;;1.55;;
35977;SDS011;22056;0.000;0.000;2023-11-22T15:02:40;4.70;;;1.58;;
35977;SDS011;22056;0.000;0.000;2023-11-22T15:05:08;3.10;;;1.35;;
35977;SDS011;22056;0.000;0.000;2023-11-22T15:07:37;3.90;;;1.45;;